Time;durP1;ratioP1;P1;durP2;ratioP2;P2;SDS_P1;SDS_P2;PMS_P1;PMS_P2;Temp;Humidity;BMP_temperature;BMP_pressure;BME280_temperature;BME280_humidity;BME280_pressure;Samples;Min_cycle;Max_cycle;Signal;HPM_P1;HPM_P2
2021/04/30 00:01:35;;;;;;;11.40;10.13;;;14.50;60.00;;;;;;6169565;23;20009;-75
2021/04/30 00:04:01;;;;;;;13.95;10.77;;;14.50;60.10;;;;;;6168856;23;20080;-76
2021/04/30 00:06:27;;;;;;;12.50;10.32;;;14.50;60.10;;;;;;6168617;23;20079;-75
2021/04/30 00:08:52;;;;;;;12.85;10.38;;;14.50;60.00;;;;;;6169356;23;20391;-77
2021/04/30 00:11:18;;;;;;;13.07;10.30;;;14.50;60.00;;;;;;6158825;23;20018;-75
2021/04/30 00:13:44;;;;;;;12.73;10.20;;;14.50;60.00;;;;;;6169384;23;20352;-75
2021/04/30 00:16:10;;;;;;;11.82;10.45;;;14.50;60.10;;;;;;6158676;23;20140;-75
2021/04/30 00:18:36;;;;;;;11.90;10.05;;;14.40;60.10;;;;;;6159032;23;20021;-76
2021/04/30 00:21:02;;;;;;;11.52;10.23;;;14.40;60.10;;;;;;6169713;23;20013;-76
2021/04/30 00:23:31;;;;;;;13.27;9.70;;;14.40;60.20;;;;;;6168362;23;20044;-75
2021/04/30 00:26:01;;;;;;;12.68;9.50;;;14.40;60.20;;;;;;6169153;23;20411;-77
2021/04/30 00:28:27;;;;;;;12.10;9.77;;;14.40;60.30;;;;;;6168999;23;20291;-75
2021/04/30 00:30:54;;;;;;;13.43;9.73;;;14.40;60.40;;;;;;6168721;23;20009;-76
2021/04/30 00:33:20;;;;;;;13.57;10.68;;;14.40;60.40;;;;;;6169331;23;20010;-76
2021/04/30 00:35:46;;;;;;;15.15;10.10;;;14.40;60.40;;;;;;6158735;23;20450;-76
2021/04/30 00:38:13;;;;;;;16.30;9.20;;;14.40;60.40;;;;;;6168382;23;20009;-75
2021/04/30 00:40:39;;;;;;;12.70;9.60;;;14.40;60.50;;;;;;6168679;23;20076;-75
2021/04/30 00:43:05;;;;;;;11.02;8.98;;;14.40;60.50;;;;;;6164628;23;20018;-76
2021/04/30 00:45:31;;;;;;;12.73;9.30;;;14.40;60.50;;;;;;6162965;23;20080;-76
2021/04/30 00:47:58;;;;;;;13.07;9.50;;;14.30;60.50;;;;;;6168829;23;20072;-76
2021/04/30 00:50:27;;;;;;;14.30;8.18;;;14.40;60.60;;;;;;6168715;23;20044;-75
2021/04/30 00:52:53;;;;;;;13.93;8.68;;;14.30;60.50;;;;;;6168985;23;20398;-75
2021/04/30 00:55:20;;;;;;;12.27;8.70;;;14.30;60.60;;;;;;6168623;23;20013;-75
2021/04/30 00:57:57;;;;;;;11.65;8.63;;;14.30;60.60;;;;;;6168596;23;20009;-76
2021/04/30 01:00:26;;;;;;;11.27;8.85;;;14.30;60.70;;;;;;6168501;23;20084;-76
2021/04/30 01:02:52;;;;;;;12.80;9.23;;;14.40;60.70;;;;;;6168694;23;20009;-76
2021/04/30 01:05:19;;;;;;;11.68;8.43;;;14.30;60.70;;;;;;6168607;23;20304;-76
2021/04/30 01:07:45;;;;;;;13.73;9.18;;;14.30;60.80;;;;;;6168542;23;20470;-75
2021/04/30 01:10:12;;;;;;;12.77;8.57;;;14.30;60.80;;;;;;6168004;23;20112;-76
2021/04/30 01:12:38;;;;;;;13.23;8.73;;;14.30;60.80;;;;;;6158648;23;20037;-76
2021/04/30 01:15:05;;;;;;;14.25;8.77;;;14.30;60.90;;;;;;6168320;23;20020;-76
2021/04/30 01:17:34;;;;;;;15.50;8.57;;;14.30;60.90;;;;;;6168764;23;20024;-76
2021/04/30 01:20:00;;;;;;;12.07;7.82;;;14.30;60.90;;;;;;6168243;23;20013;-75
2021/04/30 01:22:51;;;;;;;12.25;8.50;;;14.30;61.00;;;;;;6168579;23;20013;-76
2021/04/30 01:25:25;;;;;;;12.13;7.60;;;14.30;61.00;;;;;;6145938;23;20029;-76
2021/04/30 01:27:53;;;;;;;17.15;8.35;;;14.30;61.10;;;;;;6167851;23;20020;-75
2021/04/30 01:30:28;;;;;;;14.38;7.72;;;14.30;61.20;;;;;;6167836;23;20368;-76
2021/04/30 01:32:54;;;;;;;14.90;7.82;;;14.30;61.30;;;;;;6158535;23;20009;-75
2021/04/30 01:35:23;;;;;;;16.50;7.75;;;14.30;61.40;;;;;;6167731;23;20014;-76
2021/04/30 01:37:50;;;;;;;15.75;7.13;;;14.30;61.50;;;;;;6168812;23;20147;-75
2021/04/30 01:40:34;;;;;;;14.43;7.78;;;14.30;61.50;;;;;;6169081;23;20009;-74
2021/04/30 01:43:14;;;;;;;14.87;7.03;;;14.30;61.60;;;;;;6168197;23;20037;-76
2021/04/30 01:45:58;;;;;;;13.27;7.03;;;14.30;61.70;;;;;;6162991;23;20094;-74
2021/04/30 01:48:29;;;;;;;14.88;7.05;;;14.30;61.80;;;;;;6168052;23;20133;-76
2021/04/30 01:50:59;;;;;;;14.80;6.75;;;14.20;61.80;;;;;;6167996;23;20141;-75
2021/04/30 01:53:31;;;;;;;13.02;6.28;;;14.20;61.90;;;;;;6167955;23;20025;-76
2021/04/30 01:55:58;;;;;;;18.70;6.63;;;14.30;62.00;;;;;;6157793;23;20085;-76
2021/04/30 01:58:24;;;;;;;17.33;7.32;;;14.30;62.00;;;;;;6168881;23;20024;-76
2021/04/30 02:00:52;;;;;;;16.27;6.88;;;14.20;62.10;;;;;;6158270;23;20291;-75
2021/04/30 02:03:18;;;;;;;14.10;6.53;;;14.20;62.10;;;;;;6169202;23;20013;-76
2021/04/30 02:05:44;;;;;;;19.08;7.07;;;14.20;62.10;;;;;;6168218;23;20025;-77
2021/04/30 02:08:11;;;;;;;15.95;6.53;;;14.20;62.20;;;;;;6167879;23;20309;-75
2021/04/30 02:10:38;;;;;;;16.05;6.22;;;14.20;62.20;;;;;;6167724;23;20017;-75
2021/04/30 02:13:04;;;;;;;16.13;6.22;;;14.20;62.20;;;;;;6168101;23;20016;-76
2021/04/30 02:15:33;;;;;;;18.58;6.45;;;14.20;62.30;;;;;;6158399;23;20367;-75
2021/04/30 02:17:59;;;;;;;14.93;6.13;;;14.20;62.30;;;;;;6168083;23;20037;-75
2021/04/30 02:20:25;;;;;;;17.08;6.68;;;14.10;62.30;;;;;;6167397;23;20438;-76
2021/04/30 02:22:52;;;;;;;16.30;6.68;;;14.20;62.30;;;;;;6167954;23;20013;-75
2021/04/30 02:25:20;;;;;;;15.93;6.55;;;14.10;62.30;;;;;;6157672;23;20024;-76
2021/04/30 02:27:47;;;;;;;13.35;6.28;;;14.10;62.30;;;;;;6167736;23;20022;-75
2021/04/30 02:30:15;;;;;;;13.68;6.45;;;14.10;62.40;;;;;;6158310;23;20056;-75
2021/04/30 02:32:42;;;;;;;14.90;6.82;;;14.10;62.40;;;;;;6141668;23;20009;-75
2021/04/30 02:35:14;;;;;;;17.90;6.55;;;14.10;62.40;;;;;;6167903;23;20029;-76
2021/04/30 02:37:41;;;;;;;14.85;6.72;;;14.10;62.40;;;;;;6167652;23;20010;-75
2021/04/30 02:40:09;;;;;;;18.55;6.97;;;14.10;62.40;;;;;;6167769;23;20021;-75
2021/04/30 02:42:35;;;;;;;16.23;7.03;;;14.10;62.50;;;;;;6168604;23;20052;-75
2021/04/30 02:45:01;;;;;;;24.13;6.63;;;14.10;62.50;;;;;;6165232;23;20013;-76
2021/04/30 02:47:30;;;;;;;16.63;7.10;;;14.10;62.50;;;;;;6167273;23;20014;-74
2021/04/30 02:50:05;;;;;;;18.40;7.18;;;14.10;62.50;;;;;;6167859;23;20013;-75
2021/04/30 02:52:31;;;;;;;17.92;6.45;;;14.10;62.50;;;;;;6167958;23;20029;-75
2021/04/30 02:54:57;;;;;;;14.20;7.00;;;14.10;62.50;;;;;;6167776;23;20024;-75
2021/04/30 02:57:24;;;;;;;14.05;6.68;;;14.10;62.50;;;;;;6131369;23;20013;-76
2021/04/30 02:59:51;;;;;;;16.52;6.85;;;14.10;62.60;;;;;;6167694;23;20028;-75
2021/04/30 03:02:18;;;;;;;15.85;6.20;;;14.10;62.60;;;;;;6167722;23;20013;-76
2021/04/30 03:04:44;;;;;;;16.52;6.70;;;14.10;62.50;;;;;;6157628;23;20009;-74
2021/04/30 03:07:10;;;;;;;17.63;6.72;;;14.00;62.50;;;;;;6167702;23;20009;-76
2021/04/30 03:09:36;;;;;;;15.77;6.60;;;14.00;62.50;;;;;;6167670;23;20013;-75
2021/04/30 03:12:02;;;;;;;15.05;6.82;;;14.00;62.50;;;;;;6167541;23;20295;-76
2021/04/30 03:14:28;;;;;;;17.63;6.10;;;14.10;62.50;;;;;;6167883;23;20009;-76
2021/04/30 03:16:54;;;;;;;16.25;6.30;;;14.00;62.50;;;;;;6157712;23;20029;-75
2021/04/30 03:19:20;;;;;;;16.13;6.35;;;14.00;62.50;;;;;;6167371;23;20287;-76
2021/04/30 03:21:46;;;;;;;18.67;7.20;;;14.00;62.40;;;;;;6167548;23;20013;-75
2021/04/30 03:24:12;;;;;;;16.85;6.60;;;14.00;62.40;;;;;;6167357;23;20029;-76
2021/04/30 03:26:38;;;;;;;15.52;6.30;;;14.00;62.40;;;;;;6167272;23;20064;-75
2021/04/30 03:29:04;;;;;;;13.20;6.38;;;14.00;62.40;;;;;;6167833;23;20013;-75
2021/04/30 03:31:31;;;;;;;22.48;7.03;;;14.00;62.40;;;;;;6167601;23;20052;-75
2021/04/30 03:33:59;;;;;;;17.85;6.30;;;14.00;62.40;;;;;;6167084;23;20358;-74
2021/04/30 03:36:26;;;;;;;19.40;6.90;;;14.00;62.30;;;;;;6167196;23;20084;-76
2021/04/30 03:38:52;;;;;;;12.05;5.60;;;14.00;62.40;;;;;;6167288;23;20009;-75
2021/04/30 03:41:18;;;;;;;13.48;5.78;;;14.00;62.40;;;;;;6167703;23;20010;-75
2021/04/30 03:43:45;;;;;;;16.23;5.90;;;13.90;62.30;;;;;;6167631;23;20030;-75
2021/04/30 03:46:11;;;;;;;14.73;6.28;;;13.90;62.30;;;;;;6158368;23;20021;-75
2021/04/30 03:48:37;;;;;;;15.00;5.93;;;13.90;62.30;;;;;;6157509;23;20014;-76
2021/04/30 03:51:03;;;;;;;16.98;6.28;;;13.90;62.30;;;;;;6167693;23;20049;-75
2021/04/30 03:53:29;;;;;;;16.13;6.60;;;13.90;62.30;;;;;;6168082;23;20020;-76
2021/04/30 03:55:55;;;;;;;12.82;5.68;;;13.90;62.30;;;;;;6167614;23;20347;-76
2021/04/30 03:58:21;;;;;;;17.33;5.38;;;13.90;62.30;;;;;;6158492;23;20088;-76
2021/04/30 04:00:47;;;;;;;16.23;6.07;;;13.90;62.40;;;;;;6168894;23;20025;-76
2021/04/30 04:03:12;;;;;;;16.25;5.53;;;13.90;62.40;;;;;;6168864;23;20013;-76
2021/04/30 04:05:38;;;;;;;14.02;4.82;;;13.80;62.40;;;;;;6159303;23;20013;-76
2021/04/30 04:08:07;;;;;;;11.48;5.28;;;13.80;62.40;;;;;;6169052;23;20129;-75
2021/04/30 04:10:37;;;;;;;11.98;4.78;;;13.80;62.50;;;;;;6168983;23;20286;-75
2021/04/30 04:13:17;;;;;;;13.68;5.72;;;13.80;62.50;;;;;;6168957;23;20014;-76
2021/04/30 04:15:44;;;;;;;13.63;5.05;;;13.80;62.50;;;;;;6168719;23;20307;-74
2021/04/30 04:18:10;;;;;;;19.95;5.93;;;13.80;62.60;;;;;;6168329;23;20307;-74
2021/04/30 04:20:36;;;;;;;15.43;4.85;;;13.80;62.80;;;;;;6168810;23;20021;-75
2021/04/30 04:23:02;;;;;;;17.83;5.07;;;13.80;63.00;;;;;;6168537;23;20320;-76
2021/04/30 04:25:29;;;;;;;16.80;4.20;;;13.90;63.10;;;;;;6168344;23;20010;-73
2021/04/30 04:27:56;;;;;;;14.98;4.30;;;13.90;63.10;;;;;;6168940;23;20017;-75
2021/04/30 04:30:26;;;;;;;13.88;3.70;;;14.00;63.30;;;;;;6168221;23;20299;-79
2021/04/30 04:32:54;;;;;;;16.38;3.92;;;14.20;63.30;;;;;;6169046;23;20037;-75
2021/04/30 04:35:20;;;;;;;17.02;3.53;;;14.50;63.00;;;;;;6168650;23;20080;-74
2021/04/30 04:37:46;;;;;;;9.40;2.92;;;14.80;63.30;;;;;;6143536;23;20040;-76
2021/04/30 04:40:15;;;;;;;12.18;3.83;;;15.00;62.40;;;;;;6158261;23;20338;-78
2021/04/30 04:42:43;;;;;;;11.10;3.17;;;15.20;62.20;;;;;;6159568;23;20017;-74
2021/04/30 04:45:10;;;;;;;13.75;3.53;;;15.40;62.10;;;;;;6164861;23;20017;-76
2021/04/30 04:47:36;;;;;;;7.82;2.75;;;15.70;62.80;;;;;;6168813;23;20013;-74
2021/04/30 04:50:04;;;;;;;12.63;3.78;;;15.90;62.00;;;;;;6168071;23;20040;-74
2021/04/30 04:52:29;;;;;;;10.32;2.80;;;16.10;62.00;;;;;;6167842;23;20017;-70
2021/04/30 04:54:55;;;;;;;10.57;2.70;;;16.10;61.90;;;;;;6168408;23;20005;-73
2021/04/30 04:57:21;;;;;;;8.60;2.90;;;16.20;61.90;;;;;;6168434;23;20005;-74
2021/04/30 04:59:47;;;;;;;9.40;2.85;;;16.30;61.90;;;;;;6167502;23;20415;-75
2021/04/30 05:02:13;;;;;;;9.55;2.80;;;16.30;61.90;;;;;;6168721;23;20021;-71
2021/04/30 05:04:42;;;;;;;9.65;3.20;;;16.40;61.90;;;;;;6168616;23;20013;-71
2021/04/30 05:07:08;;;;;;;10.25;2.60;;;16.40;61.90;;;;;;6168749;23;20017;-75
2021/04/30 05:09:34;;;;;;;10.88;2.72;;;16.50;61.70;;;;;;6158262;23;20303;-72
2021/04/30 05:12:00;;;;;;;10.25;3.05;;;16.50;61.70;;;;;;6168583;23;20010;-73
2021/04/30 05:14:28;;;;;;;8.88;2.58;;;16.40;59.00;;;;;;6168007;23;20095;-73
2021/04/30 05:16:54;;;;;;;12.70;3.03;;;16.40;61.60;;;;;;6168276;23;20017;-72
2021/04/30 05:19:19;;;;;;;10.50;2.45;;;16.50;61.90;;;;;;6167469;23;20405;-73
2021/04/30 05:21:47;;;;;;;10.52;2.22;;;16.70;62.00;;;;;;6168760;23;20009;-73
2021/04/30 05:24:14;;;;;;;9.77;3.38;;;16.80;61.90;;;;;;6167945;23;20009;-71
2021/04/30 05:26:41;;;;;;;14.85;3.00;;;16.90;58.70;;;;;;6167915;23;20017;-72
2021/04/30 05:29:07;;;;;;;12.40;2.92;;;16.80;60.30;;;;;;6168904;23;20013;-74
2021/04/30 05:31:34;;;;;;;9.63;2.58;;;17.00;62.30;;;;;;6168065;23;20028;-73
2021/04/30 05:34:02;;;;;;;11.85;3.15;;;17.00;62.50;;;;;;6168361;23;20040;-73
2021/04/30 05:36:29;;;;;;;14.25;2.80;;;17.20;63.00;;;;;;6157759;23;20022;-72
2021/04/30 05:38:55;;;;;;;9.55;3.05;;;17.30;63.00;;;;;;6157133;23;20017;-74
2021/04/30 05:41:21;;;;;;;15.05;2.97;;;17.40;63.20;;;;;;6168707;23;20380;-73
2021/04/30 05:43:47;;;;;;;11.48;3.03;;;17.50;63.40;;;;;;6158101;23;20017;-74
2021/04/30 05:46:13;;;;;;;10.90;2.63;;;17.50;63.50;;;;;;6161023;23;20017;-73
2021/04/30 05:48:39;;;;;;;12.68;3.38;;;17.60;63.30;;;;;;6167272;23;20017;-72
2021/04/30 05:51:05;;;;;;;8.55;2.45;;;17.70;63.20;;;;;;6168197;23;20010;-73
2021/04/30 05:53:31;;;;;;;11.60;2.75;;;17.60;61.80;;;;;;6167568;23;20021;-73
2021/04/30 05:55:57;;;;;;;9.43;2.13;;;17.60;62.80;;;;;;6167625;23;20014;-72
2021/04/30 05:58:23;;;;;;;9.65;2.63;;;17.70;62.80;;;;;;6167637;23;20013;-69
2021/04/30 06:00:49;;;;;;;14.75;3.17;;;17.60;62.60;;;;;;6168122;23;20018;-70
2021/04/30 06:03:14;;;;;;;14.55;2.33;;;17.70;62.50;;;;;;6167936;23;20013;-71
2021/04/30 06:05:40;;;;;;;13.27;3.35;;;17.80;62.60;;;;;;6167376;23;20009;-72
2021/04/30 06:08:06;;;;;;;17.45;3.22;;;17.80;61.30;;;;;;6168063;23;20009;-73
2021/04/30 06:10:32;;;;;;;13.60;2.80;;;17.90;62.20;;;;;;6167660;23;20403;-71
2021/04/30 06:13:05;;;;;;;14.65;3.17;;;17.90;62.20;;;;;;6167766;23;20013;-71
2021/04/30 06:15:31;;;;;;;14.50;3.30;;;18.00;62.30;;;;;;6168057;23;20009;-72
2021/04/30 06:17:57;;;;;;;30.60;4.35;;;18.10;61.90;;;;;;6142313;23;20017;-72
2021/04/30 06:20:23;;;;;;;17.20;3.40;;;17.90;60.40;;;;;;6168215;23;20507;-77
2021/04/30 06:22:48;;;;;;;10.95;3.40;;;18.00;60.50;;;;;;6168079;23;20014;-71
2021/04/30 06:25:14;;;;;;;16.85;3.03;;;18.10;60.30;;;;;;6167748;23;20024;-72
2021/04/30 06:27:40;;;;;;;19.38;3.33;;;18.20;60.30;;;;;;6167664;23;20014;-72
2021/04/30 06:30:06;;;;;;;14.35;3.42;;;18.30;60.20;;;;;;6167755;23;20068;-71
2021/04/30 06:32:32;;;;;;;14.73;3.30;;;18.30;60.20;;;;;;6167580;23;20049;-74
2021/04/30 06:34:59;;;;;;;16.15;3.97;;;18.30;60.00;;;;;;6158066;23;20055;-70
2021/04/30 06:37:27;;;;;;;16.88;3.65;;;18.30;59.10;;;;;;6167091;23;20049;-73
2021/04/30 06:39:54;;;;;;;19.27;4.97;;;18.30;59.10;;;;;;6167749;23;20010;-73
2021/04/30 06:42:20;;;;;;;14.75;4.10;;;18.30;58.40;;;;;;6167750;23;20075;-73
2021/04/30 06:44:45;;;;;;;15.60;4.30;;;18.30;57.50;;;;;;6166237;23;20013;-73
2021/04/30 06:47:11;;;;;;;15.38;3.97;;;18.30;56.90;;;;;;6167528;23;20010;-74
2021/04/30 06:49:37;;;;;;;11.18;4.03;;;18.20;56.30;;;;;;6167362;23;20013;-75
2021/04/30 06:52:03;;;;;;;12.18;3.35;;;18.20;55.90;;;;;;6168399;23;20471;-74
2021/04/30 06:54:29;;;;;;;14.90;3.60;;;17.80;54.90;;;;;;6167977;23;20296;-77
2021/04/30 06:56:55;;;;;;;9.98;3.97;;;17.20;57.10;;;;;;6167494;23;20021;-75
2021/04/30 06:59:21;;;;;;;17.40;4.10;;;17.20;58.70;;;;;;6167345;23;20013;-74
2021/04/30 07:01:47;;;;;;;15.95;3.55;;;17.30;58.50;;;;;;6168887;23;20084;-75
2021/04/30 07:04:13;;;;;;;10.73;3.50;;;17.30;58.70;;;;;;6167819;23;20403;-75
2021/04/30 07:06:39;;;;;;;11.80;3.75;;;17.40;58.80;;;;;;6158345;23;20018;-74
2021/04/30 07:09:05;;;;;;;10.10;3.45;;;17.40;58.70;;;;;;6167324;23;20077;-74
2021/04/30 07:11:32;;;;;;;14.00;3.53;;;17.50;58.80;;;;;;6168337;23;20009;-74
2021/04/30 07:13:58;;;;;;;8.65;2.97;;;17.40;58.70;;;;;;6157837;23;20014;-73
2021/04/30 07:16:23;;;;;;;9.35;3.15;;;17.40;58.80;;;;;;6167575;23;20020;-74
2021/04/30 07:18:49;;;;;;;11.80;3.28;;;17.40;58.90;;;;;;6167559;23;20067;-73
2021/04/30 07:21:15;;;;;;;10.32;3.65;;;17.40;59.10;;;;;;6167653;23;20024;-73
2021/04/30 07:23:41;;;;;;;14.98;3.63;;;17.30;59.20;;;;;;6158561;23;20013;-73
2021/04/30 07:26:07;;;;;;;14.05;4.25;;;17.30;59.50;;;;;;6157908;23;20017;-73
2021/04/30 07:28:32;;;;;;;13.10;4.32;;;17.30;59.60;;;;;;6167656;23;20017;-73
2021/04/30 07:30:59;;;;;;;13.88;4.07;;;17.30;59.60;;;;;;6167615;23;20040;-72
2021/04/30 07:33:25;;;;;;;13.48;4.25;;;17.30;59.30;;;;;;6159406;23;20024;-73
2021/04/30 07:35:51;;;;;;;15.77;5.10;;;17.30;59.00;;;;;;6143913;23;20014;-73
2021/04/30 07:38:17;;;;;;;12.77;4.72;;;17.30;58.50;;;;;;6159207;23;20068;-73
2021/04/30 07:40:44;;;;;;;15.45;4.32;;;17.20;58.10;;;;;;6169493;23;20046;-73
2021/04/30 07:43:14;;;;;;;13.02;3.65;;;17.10;58.00;;;;;;6169498;23;20059;-73
2021/04/30 07:45:42;;;;;;;15.13;4.10;;;17.10;58.20;;;;;;6165289;23;20015;-74
2021/04/30 07:48:09;;;;;;;12.90;3.80;;;17.00;58.60;;;;;;6169306;23;20033;-73
2021/04/30 07:50:36;;;;;;;15.02;3.65;;;17.00;59.00;;;;;;6169331;23;20152;-73
2021/04/30 07:53:02;;;;;;;15.00;4.53;;;17.00;59.20;;;;;;6169884;23;20080;-72
2021/04/30 07:55:29;;;;;;;16.20;4.07;;;17.00;59.50;;;;;;6169453;23;20295;-73
2021/04/30 07:57:55;;;;;;;13.85;3.92;;;17.00;59.70;;;;;;6169799;23;20419;-72
2021/04/30 08:00:21;;;;;;;17.48;3.78;;;17.00;59.80;;;;;;6169450;23;20017;-73
2021/04/30 08:02:48;;;;;;;20.10;5.00;;;17.00;59.60;;;;;;6170004;23;20097;-72
2021/04/30 08:05:13;;;;;;;18.98;4.35;;;16.80;58.50;;;;;;6169268;23;20009;-72
2021/04/30 08:07:41;;;;;;;16.65;5.18;;;16.70;58.80;;;;;;6169298;23;20017;-73
2021/04/30 08:10:07;;;;;;;15.95;4.97;;;16.60;59.00;;;;;;6169085;23;20403;-73
2021/04/30 08:12:33;;;;;;;13.40;4.13;;;16.50;59.10;;;;;;6168792;23;20248;-73
2021/04/30 08:14:59;;;;;;;13.27;3.97;;;16.50;59.40;;;;;;6143497;23;20025;-73
2021/04/30 08:17:25;;;;;;;14.02;4.72;;;16.40;60.00;;;;;;6169327;23;20079;-73
2021/04/30 08:19:56;;;;;;;14.20;4.75;;;16.40;60.10;;;;;;6169049;23;20013;-72
2021/04/30 08:22:22;;;;;;;15.60;5.30;;;16.40;59.70;;;;;;6160196;23;20108;-73
2021/04/30 08:24:47;;;;;;;14.60;5.43;;;16.30;60.00;;;;;;6169009;23;20013;-73
2021/04/30 08:27:13;;;;;;;17.70;4.95;;;16.30;60.00;;;;;;6168647;23;20017;-73
2021/04/30 08:29:39;;;;;;;15.20;4.28;;;16.30;60.30;;;;;;6168619;23;20013;-73
2021/04/30 08:32:05;;;;;;;10.48;4.18;;;16.30;61.10;;;;;;6169013;23;20021;-73
2021/04/30 08:34:31;;;;;;;15.13;4.35;;;16.30;61.40;;;;;;6168603;23;20024;-72
2021/04/30 08:36:57;;;;;;;14.95;4.30;;;16.40;61.50;;;;;;6168479;23;20013;-73
2021/04/30 08:39:23;;;;;;;11.82;4.18;;;16.40;61.70;;;;;;6168954;23;20072;-72
2021/04/30 08:41:50;;;;;;;9.90;3.47;;;16.40;61.50;;;;;;6168427;23;20022;-72
2021/04/30 08:44:16;;;;;;;12.25;3.50;;;16.50;61.50;;;;;;6168830;23;20037;-72
2021/04/30 08:46:43;;;;;;;15.45;4.05;;;16.40;61.50;;;;;;6161303;23;20263;-73
2021/04/30 08:49:12;;;;;;;18.70;4.50;;;16.40;61.70;;;;;;6168756;23;20021;-73
2021/04/30 08:51:39;;;;;;;19.92;4.15;;;16.40;61.70;;;;;;6168517;23;20273;-73
2021/04/30 08:54:07;;;;;;;12.15;3.42;;;16.40;61.90;;;;;;6168741;23;20009;-73
2021/04/30 08:56:33;;;;;;;17.70;4.43;;;16.40;62.00;;;;;;6168785;23;20013;-72
2021/04/30 08:59:00;;;;;;;12.48;4.60;;;16.40;62.00;;;;;;6168817;23;20040;-73
2021/04/30 09:01:26;;;;;;;17.40;5.10;;;16.40;59.80;;;;;;6168724;23;20391;-73
2021/04/30 09:03:52;;;;;;;12.00;4.07;;;16.30;59.10;;;;;;6168663;23;20024;-73
2021/04/30 09:06:35;;;;;;;10.70;3.60;;;16.30;60.90;;;;;;6168738;23;20014;-73
2021/04/30 09:09:11;;;;;;;9.93;3.23;;;16.30;62.30;;;;;;6169343;23;20121;-73
2021/04/30 09:11:42;;;;;;;9.18;3.97;;;16.30;62.30;;;;;;6168447;23;20028;-73
2021/04/30 09:14:21;;;;;;;11.88;4.88;;;16.40;62.50;;;;;;6168967;23;20017;-73
2021/04/30 09:17:06;;;;;;;9.07;3.80;;;16.40;62.80;;;;;;6168498;23;20009;-73
2021/04/30 09:19:56;;;;;;;10.23;3.83;;;16.40;62.90;;;;;;6168516;23;20009;-73
2021/04/30 09:22:24;;;;;;;9.32;4.00;;;16.40;62.90;;;;;;6168893;23;20017;-74
2021/04/30 09:24:59;;;;;;;11.77;3.70;;;16.40;62.80;;;;;;6168531;23;20021;-73
2021/04/30 09:27:37;;;;;;;9.45;3.92;;;16.40;62.90;;;;;;6168858;23;20017;-72
2021/04/30 09:30:23;;;;;;;7.50;3.35;;;16.40;62.90;;;;;;6168395;23;20084;-73
2021/04/30 09:33:16;;;;;;;7.60;3.00;;;16.40;62.90;;;;;;6168054;23;20024;-74
2021/04/30 09:35:51;;;;;;;11.77;3.92;;;16.40;63.00;;;;;;6168857;23;20017;-73
2021/04/30 09:38:17;;;;;;;6.95;3.42;;;16.40;62.90;;;;;;6168583;23;20013;-73
2021/04/30 09:40:44;;;;;;;8.82;3.55;;;16.40;62.80;;;;;;6168043;23;20021;-73
2021/04/30 09:43:12;;;;;;;8.40;3.60;;;16.40;62.90;;;;;;6143038;23;20084;-74
2021/04/30 09:45:38;;;;;;;7.57;3.97;;;16.40;62.80;;;;;;6164747;23;20009;-74
2021/04/30 09:48:05;;;;;;;15.25;3.58;;;16.40;62.70;;;;;;6168297;23;20033;-73
2021/04/30 09:50:32;;;;;;;12.35;4.65;;;16.40;62.30;;;;;;6168782;23;20067;-73
2021/04/30 09:53:00;;;;;;;12.25;4.93;;;16.40;60.60;;;;;;6168293;23;20066;-73
2021/04/30 09:55:40;;;;;;;10.98;5.15;;;16.40;59.70;;;;;;6168091;23;20015;-73
2021/04/30 09:58:14;;;;;;;13.77;4.82;;;16.30;58.60;;;;;;6168134;23;20355;-73
2021/04/30 10:00:41;;;;;;;11.77;4.25;;;16.30;59.20;;;;;;6168488;23;20013;-73
2021/04/30 10:03:23;;;;;;;9.48;4.18;;;16.30;60.50;;;;;;6168056;23;20037;-73
2021/04/30 10:06:20;;;;;;;9.75;4.38;;;16.30;59.60;;;;;;6168011;23;20013;-72
2021/04/30 10:09:05;;;;;;;8.18;4.70;;;16.30;59.50;;;;;;6158473;23;20036;-73
2021/04/30 10:11:34;;;;;;;14.27;4.68;;;16.30;58.50;;;;;;6168098;23;20009;-74
2021/04/30 10:14:00;;;;;;;11.25;4.32;;;16.30;59.50;;;;;;6168246;23;20033;-74
2021/04/30 10:16:27;;;;;;;9.05;4.28;;;16.30;59.20;;;;;;6168038;23;20009;-74
2021/04/30 10:18:53;;;;;;;14.07;6.78;;;16.40;60.00;;;;;;6168083;23;20013;-74
2021/04/30 10:21:19;;;;;;;14.23;7.05;;;16.40;58.90;;;;;;6167901;23;20496;-71
2021/04/30 10:23:50;;;;;;;9.98;6.53;;;16.50;58.00;;;;;;6168362;23;20009;-70
2021/04/30 10:26:18;;;;;;;9.40;6.53;;;16.50;57.70;;;;;;6168072;23;20098;-70
2021/04/30 10:28:51;;;;;;;9.95;7.03;;;16.50;57.50;;;;;;6167633;23;20303;-69
2021/04/30 10:31:31;;;;;;;10.32;7.18;;;16.50;57.30;;;;;;6157880;23;20096;-70
2021/04/30 10:34:07;;;;;;;19.08;8.45;;;16.40;57.30;;;;;;6168434;23;20010;-70
2021/04/30 10:36:40;;;;;;;18.63;9.10;;;16.40;56.60;;;;;;6157611;23;20486;-70
2021/04/30 10:39:08;;;;;;;10.50;7.28;;;16.40;56.10;;;;;;6167914;23;20047;-70
2021/04/30 10:41:36;;;;;;;13.25;7.53;;;16.40;56.10;;;;;;6167928;23;20398;-70
2021/04/30 10:44:10;;;;;;;10.93;8.60;;;16.40;56.60;;;;;;6167567;23;20268;-70
2021/04/30 10:46:36;;;;;;;12.27;8.27;;;16.40;55.60;;;;;;6160285;23;20021;-70
2021/04/30 10:49:07;;;;;;;10.45;7.75;;;16.40;55.40;;;;;;6167309;23;20407;-70
2021/04/30 10:51:37;;;;;;;9.45;7.38;;;16.40;55.10;;;;;;6167410;23;20013;-70
2021/04/30 10:54:24;;;;;;;10.00;7.35;;;16.40;54.90;;;;;;6168199;23;20430;-70
2021/04/30 10:57:12;;;;;;;8.05;7.25;;;16.40;55.10;;;;;;6167385;23;20024;-70
2021/04/30 10:59:40;;;;;;;9.40;6.57;;;16.30;55.30;;;;;;6168122;23;20013;-70
2021/04/30 11:02:34;;;;;;;13.98;7.75;;;16.30;55.60;;;;;;6167204;23;20017;-71
2021/04/30 11:05:04;;;;;;;12.20;7.17;;;16.20;56.00;;;;;;6167316;23;20074;-71
2021/04/30 11:07:51;;;;;;;9.27;5.68;;;16.20;56.30;;;;;;6158326;23;20326;-71
2021/04/30 11:10:30;;;;;;;7.18;5.22;;;16.20;56.60;;;;;;6168820;23;20009;-70
2021/04/30 11:12:59;;;;;;;10.45;5.93;;;16.20;56.90;;;;;;6168788;23;20310;-71
2021/04/30 11:15:30;;;;;;;11.20;5.55;;;16.20;57.20;;;;;;6159150;23;20495;-70
2021/04/30 11:17:57;;;;;;;55.53;6.25;;;16.10;57.30;;;;;;6169197;23;20010;-72
2021/04/30 11:20:26;;;;;;;7.95;4.72;;;16.10;57.50;;;;;;6169011;23;20013;-71
2021/04/30 11:23:17;;;;;;;10.40;4.80;;;16.20;57.60;;;;;;6169182;23;20013;-71
2021/04/30 11:25:58;;;;;;;7.00;4.78;;;16.10;57.60;;;;;;6158276;23;20025;-71
2021/04/30 11:28:29;;;;;;;8.07;4.95;;;16.10;58.00;;;;;;6168907;23;20077;-72
2021/04/30 11:31:03;;;;;;;6.93;4.45;;;16.10;58.10;;;;;;6169329;23;20085;-71
2021/04/30 11:34:11;;;;;;;9.68;4.20;;;16.10;58.40;;;;;;6169512;23;20024;-72
2021/04/30 11:36:42;;;;;;;17.50;4.53;;;16.10;58.50;;;;;;6159456;23;20335;-72
2021/04/30 11:39:18;;;;;;;10.00;4.60;;;16.00;58.70;;;;;;6168665;23;20019;-72
2021/04/30 11:41:44;;;;;;;6.95;4.05;;;16.10;58.90;;;;;;6169009;23;20017;-72
2021/04/30 11:44:11;;;;;;;9.50;3.47;;;16.00;59.00;;;;;;6168810;23;20013;-72
2021/04/30 11:46:39;;;;;;;7.90;3.53;;;16.00;59.10;;;;;;6161122;23;20014;-72
2021/04/30 11:49:06;;;;;;;8.98;4.18;;;16.00;59.20;;;;;;6169304;23;20044;-72
2021/04/30 11:51:45;;;;;;;8.27;4.10;;;16.00;59.30;;;;;;6169415;23;20017;-72
2021/04/30 11:54:11;;;;;;;8.85;3.58;;;16.00;59.30;;;;;;6169053;23;20410;-72
2021/04/30 11:56:37;;;;;;;6.20;4.43;;;16.00;59.30;;;;;;6169290;23;20033;-73
2021/04/30 11:59:16;;;;;;;13.10;4.13;;;16.00;59.40;;;;;;6108766;23;20283;-74
2021/04/30 12:01:56;;;;;;;11.55;3.70;;;16.10;59.30;;;;;;6169780;23;20016;-72
2021/04/30 12:04:41;;;;;;;12.43;3.47;;;16.10;59.30;;;;;;6169241;23;20084;-72
2021/04/30 12:07:08;;;;;;;10.30;3.65;;;16.10;59.20;;;;;;6169288;23;20037;-72
2021/04/30 12:09:34;;;;;;;10.52;3.47;;;16.20;59.20;;;;;;6159399;23;20017;-72
2021/04/30 12:12:30;;;;;;;8.00;3.22;;;16.20;59.20;;;;;;6169363;23;20308;-72
2021/04/30 12:15:02;;;;;;;8.98;3.50;;;16.20;59.10;;;;;;6135363;23;20018;-72
2021/04/30 12:17:40;;;;;;;8.82;2.80;;;16.30;59.20;;;;;;6158999;23;20287;-72
2021/04/30 12:20:14;;;;;;;16.38;3.10;;;16.30;59.10;;;;;;6169375;23;20033;-72
2021/04/30 12:22:44;;;;;;;5.43;2.70;;;16.30;59.10;;;;;;6169482;23;20419;-72
2021/04/30 12:25:17;;;;;;;10.63;3.38;;;16.40;59.10;;;;;;6169149;23;20024;-72
2021/04/30 12:27:43;;;;;;;8.63;3.30;;;16.40;58.90;;;;;;6169023;23;20013;-71
2021/04/30 12:30:09;;;;;;;9.82;3.05;;;16.40;58.90;;;;;;6134492;23;20038;-71
2021/04/30 12:32:35;;;;;;;6.30;2.40;;;16.50;58.80;;;;;;6159490;23;20014;-71
2021/04/30 12:35:01;;;;;;;5.93;3.25;;;16.50;58.80;;;;;;6168725;23;20491;-71
2021/04/30 12:37:27;;;;;;;5.20;3.17;;;16.50;59.10;;;;;;6169018;23;20403;-70
2021/04/30 12:39:53;;;;;;;12.23;3.45;;;16.50;59.50;;;;;;6168926;23;20014;-70
2021/04/30 12:42:20;;;;;;;12.43;4.00;;;16.50;59.80;;;;;;6158974;23;20032;-70
2021/04/30 12:44:57;;;;;;;9.50;3.42;;;16.50;60.10;;;;;;6168119;23;20084;-70
2021/04/30 12:47:26;;;;;;;8.20;3.15;;;16.50;60.40;;;;;;6169562;23;20044;-69